Time;durP1;ratioP1;P1;durP2;ratioP2;P2;SDS_P1;SDS_P2;PMS_P1;PMS_P2;Temp;Humidity;BMP_temperature;BMP_pressure;BME280_temperature;BME280_humidity;BME280_pressure;Samples;Min_cycle;Max_cycle;Signal;HPM_P1;HPM_P2
2021/04/03 00:00:00;;;;;;;11.02;7.40;;;;;;;;;;5034855;28;20079;-56
2021/04/03 00:02:26;;;;;;;11.57;6.82;;;;;;;;;;5034722;28;20029;-56
2021/04/03 00:04:52;;;;;;;11.25;6.40;;;;;;;;;;5034958;28;20022;-56
2021/04/03 00:07:18;;;;;;;11.45;5.90;;;;;;;;;;5034928;28;20049;-54
2021/04/03 00:09:45;;;;;;;9.93;6.38;;;;;;;;;;5034911;28;20025;-57
2021/04/03 00:12:11;;;;;;;13.23;5.85;;;;;;;;;;5034542;28;20116;-57
2021/04/03 00:14:37;;;;;;;9.65;5.93;;;;;;;;;;5033354;28;20079;-57
2021/04/03 00:17:03;;;;;;;10.50;6.15;;;;;;;;;;5034761;28;20025;-55
2021/04/03 00:19:29;;;;;;;12.88;6.78;;;;;;;;;;5034550;28;20038;-57
2021/04/03 00:21:56;;;;;;;14.10;7.20;;;;;;;;;;5034509;28;20108;-54
2021/04/03 00:24:22;;;;;;;15.57;7.78;;;;;;;;;;5034690;28;20033;-56
2021/04/03 00:26:48;;;;;;;13.45;7.65;;;;;;;;;;5034040;28;20036;-57
2021/04/03 00:29:14;;;;;;;14.70;7.50;;;;;;;;;;5034720;28;20029;-57
2021/04/03 00:31:40;;;;;;;14.43;7.97;;;;;;;;;;5034330;28;20473;-55
2021/04/03 00:34:06;;;;;;;16.55;7.30;;;;;;;;;;5034306;28;20036;-55
2021/04/03 00:36:32;;;;;;;9.20;5.97;;;;;;;;;;5034163;28;20026;-51
2021/04/03 00:38:58;;;;;;;9.30;5.57;;;;;;;;;;5033937;28;20036;-55
2021/04/03 00:41:25;;;;;;;9.48;5.70;;;;;;;;;;5033921;28;20029;-55
2021/04/03 00:43:51;;;;;;;10.20;5.43;;;;;;;;;;5034098;28;20029;-56
2021/04/03 00:46:17;;;;;;;10.02;6.05;;;;;;;;;;5033992;28;20072;-55
2021/04/03 00:48:44;;;;;;;8.50;5.60;;;;;;;;;;5034092;28;20113;-53
2021/04/03 00:51:10;;;;;;;9.68;5.65;;;;;;;;;;5033891;28;20357;-55
2021/04/03 00:53:36;;;;;;;7.93;5.32;;;;;;;;;;5033759;28;20504;-55
2021/04/03 00:56:03;;;;;;;7.75;5.28;;;;;;;;;;5033794;28;20025;-54
2021/04/03 00:58:30;;;;;;;9.40;5.10;;;;;;;;;;5033792;28;20037;-55
2021/04/03 01:00:56;;;;;;;9.23;5.45;;;;;;;;;;5033662;28;20029;-55
2021/04/03 01:03:23;;;;;;;9.10;5.97;;;;;;;;;;5034056;28;20021;-51
2021/04/03 01:05:50;;;;;;;8.90;5.40;;;;;;;;;;5033548;28;20132;-54
2021/04/03 01:08:16;;;;;;;8.68;5.20;;;;;;;;;;5033766;28;20032;-56
2021/04/03 01:10:44;;;;;;;10.63;5.72;;;;;;;;;;5033509;28;20090;-51
2021/04/03 01:13:13;;;;;;;8.68;5.40;;;;;;;;;;5033074;28;20053;-57
2021/04/03 01:15:44;;;;;;;8.23;5.50;;;;;;;;;;5033443;28;20406;-56
2021/04/03 01:18:10;;;;;;;8.98;5.88;;;;;;;;;;5033335;28;20068;-54
2021/04/03 01:20:42;;;;;;;9.63;5.72;;;;;;;;;;5033330;28;20061;-58
2021/04/03 01:23:20;;;;;;;7.72;5.60;;;;;;;;;;5032950;28;20477;-53
2021/04/03 01:25:46;;;;;;;11.20;5.72;;;;;;;;;;5032314;28;20073;-57
2021/04/03 01:28:31;;;;;;;10.25;6.13;;;;;;;;;;5032304;28;20100;-55
2021/04/03 01:30:57;;;;;;;9.23;5.72;;;;;;;;;;5033084;28;20033;-56
2021/04/03 01:33:24;;;;;;;10.07;6.40;;;;;;;;;;5032773;28;20495;-57
2021/04/03 01:35:50;;;;;;;11.02;5.53;;;;;;;;;;5033105;28;20037;-54
2021/04/03 01:38:20;;;;;;;9.07;6.00;;;;;;;;;;5033039;28;20346;-52
2021/04/03 01:40:48;;;;;;;8.70;5.38;;;;;;;;;;5032811;28;20025;-55
2021/04/03 01:43:17;;;;;;;9.55;6.15;;;;;;;;;;5032759;28;20037;-57
2021/04/03 01:45:43;;;;;;;10.45;6.22;;;;;;;;;;5032796;28;20476;-52
2021/04/03 01:48:10;;;;;;;11.73;6.70;;;;;;;;;;5032871;28;20049;-53
2021/04/03 01:50:38;;;;;;;9.43;6.38;;;;;;;;;;5032647;28;20103;-52
2021/04/03 01:53:05;;;;;;;9.82;6.45;;;;;;;;;;5032748;28;20029;-52
2021/04/03 01:55:31;;;;;;;10.02;6.38;;;;;;;;;;5032690;28;20091;-55
2021/04/03 01:57:58;;;;;;;11.02;6.00;;;;;;;;;;5032599;28;20029;-58
2021/04/03 02:00:25;;;;;;;12.13;6.35;;;;;;;;;;5032468;28;20026;-53
2021/04/03 02:02:52;;;;;;;8.57;5.78;;;;;;;;;;5032603;28;20029;-57
2021/04/03 02:05:18;;;;;;;9.98;6.50;;;;;;;;;;5032447;28;20132;-53
2021/04/03 02:07:45;;;;;;;10.07;6.20;;;;;;;;;;5032722;28;20040;-54
2021/04/03 02:10:13;;;;;;;9.85;6.43;;;;;;;;;;5032365;28;20056;-55
2021/04/03 02:12:40;;;;;;;8.93;6.47;;;;;;;;;;5032334;28;20029;-55
2021/04/03 02:15:07;;;;;;;9.15;5.68;;;;;;;;;;5032410;28;20480;-55
2021/04/03 02:17:34;;;;;;;10.25;6.38;;;;;;;;;;5032419;28;20040;-56
2021/04/03 02:20:02;;;;;;;9.00;5.95;;;;;;;;;;5032346;28;20335;-56
2021/04/03 02:22:28;;;;;;;9.20;5.78;;;;;;;;;;5032292;28;20485;-51
2021/04/03 02:24:56;;;;;;;10.32;6.10;;;;;;;;;;5032011;28;20029;-55
2021/04/03 02:27:22;;;;;;;8.55;6.30;;;;;;;;;;5032290;28;20476;-52
2021/04/03 02:29:48;;;;;;;10.18;6.57;;;;;;;;;;5032015;28;20030;-53
2021/04/03 02:32:14;;;;;;;11.52;7.15;;;;;;;;;;5032170;28;20044;-52
2021/04/03 02:34:40;;;;;;;11.07;7.03;;;;;;;;;;5032193;28;20116;-53
2021/04/03 02:37:07;;;;;;;15.38;7.38;;;;;;;;;;5032181;28;20026;-55
2021/04/03 02:39:33;;;;;;;12.15;8.20;;;;;;;;;;5290798;22;20024;-56
2021/04/03 02:42:01;;;;;;;16.70;7.80;;;;;;;;;;5015561;28;20033;-57
2021/04/03 02:44:28;;;;;;;12.30;7.30;;;;;;;;;;5015610;28;20022;-54
2021/04/03 02:47:06;;;;;;;11.50;6.55;;;;;;;;;;5015579;28;20133;-57
2021/04/03 02:49:35;;;;;;;13.07;6.72;;;;;;;;;;5015639;28;20026;-55
2021/04/03 02:52:03;;;;;;;10.75;6.22;;;;;;;;;;5015605;28;20026;-54
2021/04/03 02:54:29;;;;;;;10.48;6.45;;;;;;;;;;5015548;28;20032;-58
2021/04/03 02:56:57;;;;;;;9.90;6.60;;;;;;;;;;5015395;28;20050;-51
2021/04/03 02:59:25;;;;;;;10.18;7.00;;;;;;;;;;5015493;28;20377;-56
2021/04/03 03:01:53;;;;;;;10.23;6.50;;;;;;;;;;5015432;28;20088;-55
2021/04/03 03:04:20;;;;;;;11.35;6.47;;;;;;;;;;5015374;28;20026;-57
2021/04/03 03:06:47;;;;;;;12.70;7.75;;;;;;;;;;5015514;28;20033;-57
2021/04/03 03:09:18;;;;;;;14.45;8.02;;;;;;;;;;5015324;28;20026;-54
2021/04/03 03:11:46;;;;;;;13.68;7.88;;;;;;;;;;5015402;28;20026;-52
2021/04/03 03:14:14;;;;;;;13.15;7.80;;;;;;;;;;5015149;28;20104;-53
2021/04/03 03:16:40;;;;;;;13.32;7.22;;;;;;;;;;5015337;28;20029;-53
2021/04/03 03:19:08;;;;;;;12.57;7.28;;;;;;;;;;5015517;28;20065;-55
2021/04/03 03:21:34;;;;;;;11.35;6.57;;;;;;;;;;5015010;28;20384;-53
2021/04/03 03:24:00;;;;;;;12.52;7.38;;;;;;;;;;5015035;28;20049;-57
2021/04/03 03:26:27;;;;;;;11.25;7.15;;;;;;;;;;5014761;28;20030;-56
2021/04/03 03:28:54;;;;;;;9.98;6.65;;;;;;;;;;5014950;28;20088;-53
2021/04/03 03:31:20;;;;;;;12.88;7.80;;;;;;;;;;5015154;28;20029;-54
2021/04/03 03:33:46;;;;;;;9.98;6.85;;;;;;;;;;5014817;28;20022;-53
2021/04/03 03:36:12;;;;;;;10.45;7.07;;;;;;;;;;5014927;28;20096;-55
2021/04/03 03:38:39;;;;;;;11.43;7.07;;;;;;;;;;5015103;28;20412;-52
2021/04/03 03:41:06;;;;;;;12.23;8.00;;;;;;;;;;5014307;28;20149;-56
2021/04/03 03:43:33;;;;;;;11.15;7.43;;;;;;;;;;5014724;28;20402;-55
2021/04/03 03:45:59;;;;;;;12.23;7.32;;;;;;;;;;5014486;28;20034;-56
2021/04/03 03:48:25;;;;;;;13.27;7.53;;;;;;;;;;5014448;28;20022;-54
2021/04/03 03:50:51;;;;;;;12.82;8.68;;;;;;;;;;5014468;28;20022;-54
2021/04/03 03:53:17;;;;;;;11.88;7.43;;;;;;;;;;5014639;28;20030;-57
2021/04/03 03:55:43;;;;;;;14.82;8.38;;;;;;;;;;5014525;28;20029;-56
2021/04/03 03:58:09;;;;;;;24.60;14.30;;;;;;;;;;5014332;28;20018;-57
2021/04/03 04:00:35;;;;;;;40.55;20.25;;;;;;;;;;5014342;28;20065;-54
2021/04/03 04:03:01;;;;;;;53.67;27.08;;;;;;;;;;5014233;28;20069;-51
2021/04/03 04:05:27;;;;;;;66.32;29.95;;;;;;;;;;5014047;28;20042;-53
2021/04/03 04:07:54;;;;;;;61.90;26.92;;;;;;;;;;5014095;28;20500;-53
2021/04/03 04:10:21;;;;;;;51.30;22.63;;;;;;;;;;5014356;28;20127;-55
2021/04/03 04:12:47;;;;;;;38.08;19.65;;;;;;;;;;5013947;28;20393;-52
2021/04/03 04:15:14;;;;;;;36.85;17.50;;;;;;;;;;5014155;28;20018;-55
2021/04/03 04:17:40;;;;;;;41.42;19.15;;;;;;;;;;5014502;28;20018;-56
2021/04/03 04:20:06;;;;;;;51.08;22.67;;;;;;;;;;5013982;28;20563;-54
2021/04/03 04:22:32;;;;;;;30.25;13.52;;;;;;;;;;5013879;28;20026;-56
2021/04/03 04:24:58;;;;;;;20.17;10.85;;;;;;;;;;5014012;28;20030;-53
2021/04/03 04:27:24;;;;;;;18.73;10.18;;;;;;;;;;5013650;28;20124;-56
2021/04/03 04:29:51;;;;;;;23.15;11.60;;;;;;;;;;5013794;28;20032;-56
2021/04/03 04:32:17;;;;;;;28.23;13.57;;;;;;;;;;5013732;28;20022;-53
2021/04/03 04:34:43;;;;;;;38.05;15.10;;;;;;;;;;5013838;28;20033;-56
2021/04/03 04:37:09;;;;;;;46.90;18.73;;;;;;;;;;5013622;28;20362;-55
2021/04/03 04:39:35;;;;;;;46.88;18.13;;;;;;;;;;5013406;28;20022;-55
2021/04/03 04:42:03;;;;;;;38.67;16.02;;;;;;;;;;5013385;28;20029;-55
2021/04/03 04:44:29;;;;;;;34.38;14.27;;;;;;;;;;5013492;28;20045;-56
2021/04/03 04:46:55;;;;;;;27.33;12.80;;;;;;;;;;5013375;28;20397;-54
2021/04/03 04:49:21;;;;;;;25.67;12.95;;;;;;;;;;5013374;28;20022;-54
2021/04/03 04:51:47;;;;;;;23.67;12.85;;;;;;;;;;5013354;28;20084;-53
2021/04/03 04:54:13;;;;;;;23.67;12.70;;;;;;;;;;5013406;28;20022;-56
2021/04/03 04:56:39;;;;;;;21.88;13.75;;;;;;;;;;5013299;28;20384;-55
2021/04/03 04:59:05;;;;;;;18.80;11.30;;;;;;;;;;5013044;28;20030;-56
2021/04/03 05:01:31;;;;;;;16.00;9.23;;;;;;;;;;5012561;28;20123;-54
2021/04/03 05:03:58;;;;;;;12.57;8.35;;;;;;;;;;5013197;28;20025;-56
2021/04/03 05:06:24;;;;;;;13.15;8.45;;;;;;;;;;5013056;28;20030;-54
2021/04/03 05:08:50;;;;;;;13.55;8.50;;;;;;;;;;5012976;28;20117;-50
2021/04/03 05:11:16;;;;;;;16.70;9.50;;;;;;;;;;5013150;28;20037;-55
2021/04/03 05:13:42;;;;;;;14.65;7.65;;;;;;;;;;5012771;28;20030;-53
2021/04/03 05:16:08;;;;;;;14.57;8.07;;;;;;;;;;5011708;28;20441;-56
2021/04/03 05:18:34;;;;;;;11.27;7.85;;;;;;;;;;5012907;28;20481;-57
2021/04/03 05:21:03;;;;;;;12.38;7.65;;;;;;;;;;5012852;28;20022;-52
2021/04/03 05:23:30;;;;;;;13.00;7.63;;;;;;;;;;5012827;28;20116;-56
2021/04/03 05:25:56;;;;;;;10.98;6.78;;;;;;;;;;5012693;28;20030;-55
2021/04/03 05:28:22;;;;;;;11.73;7.32;;;;;;;;;;5012585;28;20053;-56
2021/04/03 05:30:48;;;;;;;14.00;8.18;;;;;;;;;;5012772;28;20034;-54
2021/04/03 05:33:14;;;;;;;13.00;7.88;;;;;;;;;;5012771;28;20037;-55
2021/04/03 05:35:40;;;;;;;10.18;7.05;;;;;;;;;;5012587;28;20030;-55
2021/04/03 05:38:06;;;;;;;10.50;7.20;;;;;;;;;;5012564;28;20104;-53
2021/04/03 05:40:32;;;;;;;13.68;8.52;;;;;;;;;;5012344;28;20165;-56
2021/04/03 05:43:02;;;;;;;13.20;8.48;;;;;;;;;;5012255;28;20021;-58
2021/04/03 05:45:28;;;;;;;12.25;7.28;;;;;;;;;;5012572;28;20041;-56
2021/04/03 05:47:55;;;;;;;12.18;6.75;;;;;;;;;;5012292;28;20029;-55
2021/04/03 05:50:22;;;;;;;12.75;8.38;;;;;;;;;;5012531;28;20025;-55
2021/04/03 05:52:48;;;;;;;13.60;8.48;;;;;;;;;;5012492;28;20033;-54
2021/04/03 05:55:14;;;;;;;12.98;8.32;;;;;;;;;;5012573;28;20547;-53
2021/04/03 05:57:40;;;;;;;13.55;8.07;;;;;;;;;;5012435;28;20018;-51
2021/04/03 06:00:07;;;;;;;12.90;8.15;;;;;;;;;;5012072;28;20100;-54
2021/04/03 06:02:37;;;;;;;14.23;8.13;;;;;;;;;;5012380;28;20076;-55
2021/04/03 06:05:04;;;;;;;18.52;9.48;;;;;;;;;;5012033;28;20029;-55
2021/04/03 06:07:30;;;;;;;12.73;8.23;;;;;;;;;;5012065;28;20495;-53
2021/04/03 06:09:58;;;;;;;12.43;8.27;;;;;;;;;;5012098;28;20029;-55
2021/04/03 06:12:40;;;;;;;13.55;9.05;;;;;;;;;;5011123;28;20544;-56
2021/04/03 06:15:07;;;;;;;15.95;9.38;;;;;;;;;;5011813;28;20520;-52
2021/04/03 06:17:33;;;;;;;16.25;10.23;;;;;;;;;;5012104;28;20041;-56
2021/04/03 06:20:00;;;;;;;15.38;10.15;;;;;;;;;;5011871;28;20105;-52
2021/04/03 06:22:26;;;;;;;14.23;9.10;;;;;;;;;;5012095;28;20418;-53
2021/04/03 06:25:12;;;;;;;15.85;9.32;;;;;;;;;;5012110;28;20484;-57
2021/04/03 06:27:38;;;;;;;13.20;7.60;;;;;;;;;;5011746;28;20030;-57
2021/04/03 06:30:15;;;;;;;13.02;7.20;;;;;;;;;;5010524;28;20041;-55
2021/04/03 06:32:45;;;;;;;12.75;7.50;;;;;;;;;;5011830;28;20044;-56
2021/04/03 06:35:11;;;;;;;10.05;6.25;;;;;;;;;;5011726;28;20030;-55
2021/04/03 06:37:38;;;;;;;11.07;6.43;;;;;;;;;;5011781;28;20562;-57
2021/04/03 06:40:06;;;;;;;11.02;6.47;;;;;;;;;;5011616;28;20057;-58
2021/04/03 06:42:36;;;;;;;10.90;5.72;;;;;;;;;;5011586;28;20022;-58
2021/04/03 06:45:23;;;;;;;9.23;5.63;;;;;;;;;;5011579;28;20100;-57
2021/04/03 06:47:50;;;;;;;8.60;5.50;;;;;;;;;;5011609;28;20037;-55
2021/04/03 06:50:17;;;;;;;9.93;5.90;;;;;;;;;;5011859;28;20045;-57
2021/04/03 06:52:43;;;;;;;27.35;11.32;;;;;;;;;;5011654;28;20425;-57
2021/04/03 06:55:11;;;;;;;13.65;7.40;;;;;;;;;;5011528;28;20038;-58
2021/04/03 06:57:38;;;;;;;12.20;7.10;;;;;;;;;;5011619;28;20022;-57
2021/04/03 07:00:06;;;;;;;9.30;5.13;;;;;;;;;;5011436;28;20029;-57
2021/04/03 07:02:35;;;;;;;11.05;6.85;;;;;;;;;;5011550;28;20018;-57
2021/04/03 07:05:02;;;;;;;10.68;6.38;;;;;;;;;;5011558;28;20021;-54
2021/04/03 07:07:30;;;;;;;11.45;6.30;;;;;;;;;;5011446;28;20064;-58
2021/04/03 07:09:57;;;;;;;9.50;6.43;;;;;;;;;;5011450;28;20052;-57
2021/04/03 07:12:23;;;;;;;8.93;5.32;;;;;;;;;;5011579;28;20026;-57
2021/04/03 07:14:50;;;;;;;8.02;5.68;;;;;;;;;;5011167;28;20453;-58
2021/04/03 07:17:17;;;;;;;9.35;5.35;;;;;;;;;;5011373;28;20030;-57
2021/04/03 07:19:43;;;;;;;8.70;5.70;;;;;;;;;;5011472;28;20420;-53
2021/04/03 07:22:10;;;;;;;9.80;6.25;;;;;;;;;;5011495;28;20050;-57
2021/04/03 07:24:36;;;;;;;9.60;5.35;;;;;;;;;;5013520;28;20032;-56
2021/04/03 07:27:03;;;;;;;10.20;5.30;;;;;;;;;;5015134;28;20036;-55
2021/04/03 07:29:41;;;;;;;8.75;5.65;;;;;;;;;;5014939;28;20037;-58
2021/04/03 07:32:07;;;;;;;8.45;5.20;;;;;;;;;;5014720;28;20033;-56
2021/04/03 07:34:40;;;;;;;8.15;5.03;;;;;;;;;;5014895;28;20096;-59
2021/04/03 07:37:10;;;;;;;9.38;5.47;;;;;;;;;;5015018;28;20378;-56
2021/04/03 07:39:37;;;;;;;8.65;5.32;;;;;;;;;;5014778;28;20026;-55
2021/04/03 07:42:04;;;;;;;11.05;6.30;;;;;;;;;;5014626;28;20552;-58
2021/04/03 07:44:34;;;;;;;11.63;5.90;;;;;;;;;;5014711;28;20018;-53
2021/04/03 07:47:17;;;;;;;7.88;5.28;;;;;;;;;;5014361;28;20044;-58
2021/04/03 07:49:43;;;;;;;;;;;;;;;;;;5014968;28;20022;-58
2021/04/03 07:52:09;;;;;;;9.52;5.97;;;;;;;;;;5014462;28;19905;-52
2021/04/03 07:54:35;;;;;;;9.70;5.65;;;;;;;;;;5014461;28;20490;-54
2021/04/03 07:57:03;;;;;;;9.38;6.10;;;;;;;;;;5014379;28;20037;-59
2021/04/03 07:59:48;;;;;;;9.05;5.13;;;;;;;;;;5014331;28;20420;-59
2021/04/03 08:02:16;;;;;;;8.88;5.68;;;;;;;;;;5014149;28;20084;-58
2021/04/03 08:04:42;;;;;;;8.73;5.53;;;;;;;;;;5014286;28;20030;-57
2021/04/03 08:07:08;;;;;;;10.65;6.28;;;;;;;;;;5014096;28;20525;-59
2021/04/03 08:09:35;;;;;;;12.27;6.20;;;;;;;;;;5014234;28;20093;-59
2021/04/03 08:12:01;;;;;;;10.93;5.95;;;;;;;;;;5014459;28;20355;-60
2021/04/03 08:14:28;;;;;;;8.35;5.43;;;;;;;;;;5014219;28;20061;-58
2021/04/03 08:16:55;;;;;;;9.00;6.18;;;;;;;;;;5013889;28;20022;-58
2021/04/03 08:19:31;;;;;;;13.35;5.47;;;;;;;;;;5014054;28;20025;-58
2021/04/03 08:21:57;;;;;;;8.43;4.63;;;;;;;;;;5014305;28;20172;-56
2021/04/03 08:24:24;;;;;;;8.38;5.32;;;;;;;;;;5013908;28;20022;-58
2021/04/03 08:26:51;;;;;;;8.30;5.40;;;;;;;;;;5013950;28;20129;-58
2021/04/03 08:29:26;;;;;;;6.90;4.80;;;;;;;;;;5013774;28;20033;-55
2021/04/03 08:31:53;;;;;;;7.40;4.78;;;;;;;;;;5013619;28;20030;-56
2021/04/03 08:34:20;;;;;;;7.88;5.05;;;;;;;;;;5013715;28;20030;-59
2021/04/03 08:36:46;;;;;;;7.65;4.85;;;;;;;;;;5012747;28;20049;-60
2021/04/03 08:39:13;;;;;;;7.38;4.78;;;;;;;;;;5013645;28;20038;-54
2021/04/03 08:41:41;;;;;;;8.18;4.70;;;;;;;;;;5013340;28;20397;-56
2021/04/03 08:44:20;;;;;;;9.68;4.60;;;;;;;;;;5013535;28;20092;-59
2021/04/03 08:46:48;;;;;;;7.93;4.78;;;;;;;;;;5013177;28;20121;-52
2021/04/03 08:49:22;;;;;;;8.02;4.35;;;;;;;;;;5013225;28;20026;-57
2021/04/03 08:51:48;;;;;;;7.80;4.10;;;;;;;;;;5013120;28;20050;-50
2021/04/03 08:54:14;;;;;;;6.50;3.90;;;;;;;;;;5013206;28;20028;-56
2021/04/03 08:56:40;;;;;;;6.20;3.83;;;;;;;;;;5013207;28;20040;-60
2021/04/03 08:59:07;;;;;;;6.50;4.05;;;;;;;;;;5013210;28;20108;-59
2021/04/03 09:01:36;;;;;;;8.18;4.13;;;;;;;;;;5013164;28;20145;-57
2021/04/03 09:04:07;;;;;;;5.90;3.72;;;;;;;;;;5013008;28;20053;-58
2021/04/03 09:06:44;;;;;;;6.93;3.90;;;;;;;;;;5012996;28;20042;-57
2021/04/03 09:09:17;;;;;;;9.35;3.83;;;;;;;;;;5012908;28;20022;-58
2021/04/03 09:11:57;;;;;;;6.72;3.42;;;;;;;;;;5012971;28;20370;-51
2021/04/03 09:14:31;;;;;;;11.98;4.25;;;;;;;;;;5012797;28;20022;-56
2021/04/03 09:16:58;;;;;;;5.07;3.30;;;;;;;;;;5013090;28;20026;-55
2021/04/03 09:19:28;;;;;;;4.85;3.15;;;;;;;;;;5012732;28;20029;-59
2021/04/03 09:21:54;;;;;;;7.38;3.80;;;;;;;;;;5012741;28;20034;-60
2021/04/03 09:24:33;;;;;;;5.32;3.15;;;;;;;;;;5012689;28;20547;-57
2021/04/03 09:27:09;;;;;;;5.57;3.20;;;;;;;;;;5012749;28;20030;-54
2021/04/03 09:29:36;;;;;;;5.88;3.10;;;;;;;;;;5012580;28;20018;-60
2021/04/03 09:32:06;;;;;;;7.40;4.15;;;;;;;;;;5012982;28;20421;-58
2021/04/03 09:34:36;;;;;;;7.95;4.60;;;;;;;;;;5012544;28;20026;-57
2021/04/03 09:37:21;;;;;;;7.50;4.53;;;;;;;;;;5012604;28;20030;-58
2021/04/03 09:39:52;;;;;;;7.22;3.38;;;;;;;;;;5012243;28;20078;-59
2021/04/03 09:42:19;;;;;;;7.63;3.65;;;;;;;;;;5012357;28;20030;-53
2021/04/03 09:44:45;;;;;;;5.63;3.33;;;;;;;;;;5012428;28;20026;-49
2021/04/03 09:47:12;;;;;;;8.77;4.55;;;;;;;;;;5012155;28;20061;-46
2021/04/03 09:49:38;;;;;;;8.82;4.90;;;;;;;;;;5012127;28;20473;-56
2021/04/03 09:52:05;;;;;;;10.90;6.05;;;;;;;;;;5012472;28;20060;-59
2021/04/03 09:54:32;;;;;;;7.57;4.30;;;;;;;;;;5012324;28;20112;-57
2021/04/03 09:56:58;;;;;;;6.47;3.40;;;;;;;;;;5012224;28;20048;-60
2021/04/03 09:59:24;;;;;;;7.90;4.60;;;;;;;;;;5012404;28;20101;-59
2021/04/03 10:01:50;;;;;;;5.78;3.42;;;;;;;;;;5012127;28;20014;-59
2021/04/03 10:04:17;;;;;;;6.63;3.30;;;;;;;;;;5011992;28;20041;-59
2021/04/03 10:06:43;;;;;;;7.45;4.88;;;;;;;;;;5011970;28;20041;-56
2021/04/03 10:09:09;;;;;;;5.97;3.60;;;;;;;;;;5012037;28;20029;-56
2021/04/03 10:11:35;;;;;;;7.93;3.83;;;;;;;;;;5012156;28;20045;-48
2021/04/03 10:14:01;;;;;;;6.22;3.78;;;;;;;;;;5012029;28;20034;-58
2021/04/03 10:16:28;;;;;;;9.77;4.47;;;;;;;;;;5011892;28;20505;-59
2021/04/03 10:18:54;;;;;;;5.28;3.28;;;;;;;;;;5011837;28;20100;-54
2021/04/03 10:21:20;;;;;;;9.88;3.20;;;;;;;;;;5011918;28;20026;-56
2021/04/03 10:23:47;;;;;;;5.88;2.50;;;;;;;;;;5011946;28;20497;-60
2021/04/03 10:26:13;;;;;;;6.55;3.83;;;;;;;;;;5011781;28;20124;-54
2021/04/03 10:28:39;;;;;;;18.27;8.38;;;;;;;;;;5011839;28;20029;-59
2021/04/03 10:31:05;;;;;;;11.35;4.65;;;;;;;;;;5012038;28;20032;-53
2021/04/03 10:33:31;;;;;;;9.63;2.75;;;;;;;;;;5011814;28;20384;-52
2021/04/03 10:35:57;;;;;;;4.45;2.58;;;;;;;;;;5011629;28;20026;-55
2021/04/03 10:38:23;;;;;;;6.15;2.53;;;;;;;;;;5011708;28;20473;-59
2021/04/03 10:40:49;;;;;;;4.93;2.40;;;;;;;;;;5011582;28;20049;-58
2021/04/03 10:43:16;;;;;;;5.32;2.42;;;;;;;;;;5011697;28;20095;-55
2021/04/03 10:45:42;;;;;;;12.43;5.07;;;;;;;;;;5011526;28;20492;-52
2021/04/03 10:48:08;;;;;;;6.95;3.25;;;;;;;;;;5011865;28;20034;-60
2021/04/03 10:50:34;;;;;;;9.10;4.22;;;;;;;;;;5011559;28;20042;-57
2021/04/03 10:53:01;;;;;;;8.15;4.53;;;;;;;;;;5011578;28;20030;-58
2021/04/03 10:55:28;;;;;;;9.43;4.95;;;;;;;;;;5011606;28;20048;-53
2021/04/03 10:57:54;;;;;;;8.70;5.15;;;;;;;;;;5011789;28;20405;-51
2021/04/03 11:00:21;;;;;;;7.57;3.72;;;;;;;;;;5015107;28;20025;-57
2021/04/03 11:02:47;;;;;;;23.67;6.05;;;;;;;;;;5015452;28;20026;-49
2021/04/03 11:05:13;;;;;;;8.52;5.03;;;;;;;;;;5015109;28;20136;-49
2021/04/03 11:07:39;;;;;;;9.85;5.00;;;;;;;;;;5015549;28;20481;-54
2021/04/03 11:10:06;;;;;;;5.13;2.95;;;;;;;;;;5015349;28;20029;-59
2021/04/03 11:12:32;;;;;;;5.75;3.15;;;;;;;;;;5015196;28;20478;-49
2021/04/03 11:14:58;;;;;;;5.63;2.40;;;;;;;;;;5015237;28;20026;-51
2021/04/03 11:17:24;;;;;;;5.05;2.30;;;;;;;;;;5015359;28;20425;-50
2021/04/03 11:19:51;;;;;;;5.88;2.40;;;;;;;;;;5014992;28;20112;-60
2021/04/03 11:22:17;;;;;;;5.00;2.20;;;;;;;;;;5015086;28;20092;-54
2021/04/03 11:24:43;;;;;;;7.22;2.80;;;;;;;;;;5014980;28;20033;-51
2021/04/03 11:27:09;;;;;;;4.90;2.50;;;;;;;;;;5015059;28;20046;-58
2021/04/03 11:29:35;;;;;;;4.95;2.80;;;;;;;;;;5014980;28;20022;-59
2021/04/03 11:32:01;;;;;;;5.00;2.10;;;;;;;;;;5014954;28;20480;-53
2021/04/03 11:34:27;;;;;;;4.07;2.15;;;;;;;;;;5014738;28;20026;-58
2021/04/03 11:36:53;;;;;;;5.40;2.20;;;;;;;;;;5014657;28;20030;-61
2021/04/03 11:39:19;;;;;;;4.03;2.20;;;;;;;;;;5014776;28;20096;-52
2021/04/03 11:41:46;;;;;;;4.88;2.33;;;;;;;;;;5014563;28;20054;-61
2021/04/03 11:44:12;;;;;;;6.43;2.92;;;;;;;;;;5014858;28;20424;-48
2021/04/03 11:46:38;;;;;;;4.85;2.50;;;;;;;;;;5014656;28;20041;-60
2021/04/03 11:49:04;;;;;;;5.78;3.05;;;;;;;;;;5014827;28;20382;-50
2021/04/03 11:51:32;;;;;;;4.90;2.70;;;;;;;;;;5014380;28;20025;-56
2021/04/03 11:53:58;;;;;;;3.50;1.90;;;;;;;;;;5014682;28;20136;-61
2021/04/03 11:56:24;;;;;;;5.03;2.05;;;;;;;;;;5014472;28;20033;-59
2021/04/03 11:58:50;;;;;;;5.25;2.00;;;;;;;;;;5014388;28;20025;-63
2021/04/03 12:01:16;;;;;;;5.72;2.53;;;;;;;;;;5014335;28;20137;-56
2021/04/03 12:03:43;;;;;;;5.85;2.42;;;;;;;;;;5014459;28;20025;-57
2021/04/03 12:06:09;;;;;;;8.25;3.20;;;;;;;;;;5014178;28;20041;-52
2021/04/03 12:08:35;;;;;;;5.53;2.83;;;;;;;;;;5014183;28;20029;-51
2021/04/03 12:11:01;;;;;;;8.18;3.78;;;;;;;;;;5013157;28;20432;-48
2021/04/03 12:13:27;;;;;;;11.75;2.80;;;;;;;;;;5014120;28;20099;-49
2021/04/03 12:15:53;;;;;;;5.03;2.75;;;;;;;;;;5013997;28;20540;-59
2021/04/03 12:18:20;;;;;;;8.82;2.20;;;;;;;;;;5014249;28;20029;-58
2021/04/03 12:20:46;;;;;;;7.03;2.30;;;;;;;;;;5013812;28;20100;-45
2021/04/03 12:23:12;;;;;;;6.18;2.50;;;;;;;;;;5014022;28;20026;-48
2021/04/03 12:25:38;;;;;;;5.40;2.28;;;;;;;;;;5013743;28;20056;-58
2021/04/03 12:28:05;;;;;;;4.60;2.63;;;;;;;;;;5013905;28;20030;-49
2021/04/03 12:30:31;;;;;;;4.97;2.58;;;;;;;;;;5013850;28;20041;-54
2021/04/03 12:32:57;;;;;;;3.92;2.20;;;;;;;;;;5013762;28;20022;-47
2021/04/03 12:35:23;;;;;;;4.82;2.20;;;;;;;;;;5013637;28;20026;-54
2021/04/03 12:37:50;;;;;;;4.03;1.98;;;;;;;;;;5013501;28;20025;-51
2021/04/03 12:40:16;;;;;;;4.20;2.28;;;;;;;;;;5013458;28;20049;-57
2021/04/03 12:42:42;;;;;;;4.50;2.38;;;;;;;;;;5013971;28;20030;-48
2021/04/03 12:45:10;;;;;;;4.53;2.17;;;;;;;;;;5013578;28;20477;-42
2021/04/03 12:47:36;;;;;;;6.45;2.90;;;;;;;;;;5013282;28;20042;-48
2021/04/03 12:50:03;;;;;;;4.95;2.70;;;;;;;;;;5013586;28;20018;-49
2021/04/03 12:52:30;;;;;;;6.10;2.60;;;;;;;;;;5013218;28;20101;-49
2021/04/03 12:54:56;;;;;;;5.22;2.70;;;;;;;;;;5013319;28;20026;-45
2021/04/03 12:57:22;;;;;;;4.88;2.60;;;;;;;;;;5013176;28;20492;-56
2021/04/03 12:59:48;;;;;;;4.50;2.30;;;;;;;;;;5013419;28;20107;-61
2021/04/03 13:02:16;;;;;;;4.60;2.30;;;;;;;;;;5013640;28;20026;-57
2021/04/03 13:04:42;;;;;;;5.18;3.10;;;;;;;;;;5013184;28;20034;-52
2021/04/03 13:07:08;;;;;;;6.82;2.90;;;;;;;;;;5012833;28;20105;-51
2021/04/03 13:09:34;;;;;;;7.03;2.45;;;;;;;;;;5013092;28;20026;-56
2021/04/03 13:12:01;;;;;;;5.63;2.53;;;;;;;;;;5013061;28;20032;-56
2021/04/03 13:14:28;;;;;;;7.15;2.95;;;;;;;;;;5012883;28;20115;-53
2021/04/03 13:16:54;;;;;;;4.97;2.60;;;;;;;;;;5012862;28;20057;-49
2021/04/03 13:19:20;;;;;;;4.82;2.40;;;;;;;;;;5013126;28;20120;-56
2021/04/03 13:21:46;;;;;;;5.22;2.22;;;;;;;;;;5012549;28;20088;-52
2021/04/03 13:24:12;;;;;;;6.55;2.70;;;;;;;;;;5012700;28;20026;-56
2021/04/03 13:26:38;;;;;;;6.43;2.60;;;;;;;;;;5012751;28;20517;-53
2021/04/03 13:29:04;;;;;;;6.60;2.35;;;;;;;;;;5012738;28;20018;-61
2021/04/03 13:31:30;;;;;;;4.90;2.28;;;;;;;;;;5012594;28;20377;-55
2021/04/03 13:33:57;;;;;;;4.57;2.20;;;;;;;;;;5012684;28;20018;-59
2021/04/03 13:36:23;;;;;;;5.10;3.00;;;;;;;;;;5012586;28;20474;-63
2021/04/03 13:38:49;;;;;;;5.05;2.50;;;;;;;;;;5011116;28;20053;-61
2021/04/03 13:41:17;;;;;;;4.18;2.17;;;;;;;;;;5012464;28;20401;-47
2021/04/03 13:43:44;;;;;;;6.28;2.58;;;;;;;;;;5012474;28;20024;-57
2021/04/03 13:46:10;;;;;;;5.35;3.30;;;;;;;;;;5012367;28;20037;-58
2021/04/03 13:48:36;;;;;;;6.20;2.50;;;;;;;;;;5012565;28;20030;-60
2021/04/03 13:51:02;;;;;;;6.70;2.45;;;;;;;;;;5012371;28;20045;-57
2021/04/03 13:53:28;;;;;;;5.85;2.40;;;;;;;;;;5012230;28;20037;-57
2021/04/03 13:55:54;;;;;;;8.20;2.55;;;;;;;;;;5012315;28;20136;-45
2021/04/03 13:58:21;;;;;;;5.68;2.88;;;;;;;;;;5012567;28;20030;-51
2021/04/03 14:00:47;;;;;;;5.43;3.03;;;;;;;;;;5012371;28;20030;-50
2021/04/03 14:03:13;;;;;;;6.15;2.63;;;;;;;;;;5012155;28;20026;-58
2021/04/03 14:05:40;;;;;;;5.07;2.60;;;;;;;;;;5012079;28;20104;-59
2021/04/03 14:08:07;;;;;;;6.28;3.58;;;;;;;;;;5012187;28;20381;-59
2021/04/03 14:10:33;;;;;;;8.23;3.40;;;;;;;;;;5012056;28;20022;-58
2021/04/03 14:13:00;;;;;;;5.15;2.90;;;;;;;;;;5012042;28;20531;-53
2021/04/03 14:15:26;;;;;;;5.88;2.53;;;;;;;;;;5011952;28;20029;-60
2021/04/03 14:17:52;;;;;;;5.63;2.72;;;;;;;;;;5011979;28;20377;-60
2021/04/03 14:20:18;;;;;;;5.25;3.10;;;;;;;;;;5012154;28;20026;-60
2021/04/03 14:22:44;;;;;;;5.88;3.08;;;;;;;;;;5010649;28;20053;-59
2021/04/03 14:25:10;;;;;;;7.45;3.10;;;;;;;;;;5011752;28;20489;-59
2021/04/03 14:27:36;;;;;;;5.93;2.90;;;;;;;;;;5011846;28;20064;-60
2021/04/03 14:30:06;;;;;;;6.22;3.45;;;;;;;;;;5011849;28;20026;-59
2021/04/03 14:32:32;;;;;;;8.93;4.85;;;;;;;;;;5011547;28;20049;-57
2021/04/03 14:34:58;;;;;;;9.13;5.32;;;;;;;;;;5011438;28;20381;-53